createdAt,value
2018-01-11T00:00:47.169Z,99.99
2018-01-11T00:01:46.369Z,99.99
2018-01-11T00:02:46.357Z,99.99
2018-01-11T00:03:46.109Z,99.99
2018-01-11T00:04:46.340Z,99.99
2018-01-11T00:05:46.339Z,99.99
2018-01-11T00:06:46.334Z,99.99
2018-01-11T00:07:46.316Z,99.99
2018-01-11T00:08:46.311Z,99.99
2018-01-11T00:09:46.354Z,99.99
2018-01-11T00:10:46.300Z,99.99
2018-01-11T00:11:46.292Z,99.99
2018-01-11T00:12:46.292Z,99.99
2018-01-11T00:13:46.289Z,99.99
2018-01-11T00:14:46.271Z,99.99
2018-01-11T00:15:46.008Z,99.99
2018-01-11T00:16:46.015Z,99.99
2018-01-11T00:17:46.032Z,99.99
2018-01-11T00:18:46.291Z,99.99
2018-01-11T00:19:46.229Z,99.99
2018-01-11T00:20:46.235Z,99.99
2018-01-11T00:21:46.236Z,99.99
2018-01-11T00:22:46.227Z,99.99
2018-01-11T00:23:46.212Z,99.99
2018-01-11T00:24:45.960Z,99.99
2018-01-11T00:25:46.216Z,99.99
2018-01-11T00:26:46.213Z,99.99
2018-01-11T00:27:45.928Z,99.99
2018-01-11T00:28:45.920Z,99.99
2018-01-11T00:29:46.171Z,99.99
2018-01-11T00:30:46.159Z,99.99
2018-01-11T00:31:46.154Z,99.99
2018-01-11T00:32:46.154Z,99.99
2018-01-11T00:33:45.936Z,99.99
2018-01-11T00:34:46.143Z,99.99
2018-01-11T00:35:46.148Z,99.99
2018-01-11T00:36:46.128Z,99.99
2018-01-11T00:37:46.110Z,99.99
2018-01-11T00:38:46.105Z,99.99
2018-01-11T00:39:45.848Z,99.99
2018-01-11T00:40:46.094Z,99.99
2018-01-11T00:41:46.088Z,99.99
2018-01-11T00:42:46.092Z,99.99
2018-01-11T00:43:46.078Z,99.99
2018-01-11T00:44:45.813Z,99.99
2018-01-11T00:45:45.828Z,99.99
2018-01-11T00:46:46.052Z,99.99
2018-01-11T00:47:46.045Z,99.99
2018-01-11T00:48:45.788Z,99.99
2018-01-11T00:49:46.037Z,99.99
2018-01-11T00:50:46.034Z,99.99
2018-01-11T00:51:46.020Z,99.99
2018-01-11T00:52:46.018Z,99.99
2018-01-11T00:53:45.762Z,99.99
2018-01-11T00:54:45.748Z,99.99
2018-01-11T00:55:45.999Z,99.99
2018-01-11T00:56:46.000Z,99.99
2018-01-11T00:57:45.726Z,99.99
2018-01-11T00:58:45.722Z,99.99
2018-01-11T00:59:45.978Z,99.99
2018-01-11T01:00:45.978Z,99.99
2018-01-11T01:01:45.961Z,99.99
2018-01-11T01:02:45.957Z,99.99
2018-01-11T01:03:45.689Z,99.99
2018-01-11T01:04:45.685Z,99.99
2018-01-11T01:05:45.937Z,99.99
2018-01-11T01:06:45.927Z,99.99
2018-01-11T01:07:45.923Z,99.99
2018-01-11T01:08:45.915Z,99.99
2018-01-11T01:09:45.650Z,99.99
2018-01-11T01:10:45.903Z,99.99
2018-01-11T01:11:45.895Z,99.99
2018-01-11T01:12:45.881Z,99.99
2018-01-11T01:13:45.881Z,99.99
2018-01-11T01:14:45.627Z,99.99
2018-01-11T01:15:45.624Z,99.99
2018-01-11T01:16:45.859Z,99.99
2018-01-11T01:17:45.597Z,99.99
2018-01-11T01:18:45.845Z,99.99
2018-01-11T01:19:45.845Z,99.99
2018-01-11T01:20:45.830Z,99.99
2018-01-11T01:21:45.824Z,99.99
2018-01-11T01:22:45.567Z,99.99
2018-01-11T01:23:45.565Z,99.99
2018-01-11T01:24:45.817Z,99.99
2018-01-11T01:25:45.802Z,99.99
2018-01-11T01:26:45.792Z,99.99
2018-01-11T01:27:45.787Z,99.99
2018-01-11T01:28:45.781Z,99.99
2018-01-11T01:29:45.773Z,99.99
2018-01-11T01:30:45.768Z,99.99
2018-01-11T01:31:45.760Z,99.99
2018-01-11T01:32:45.753Z,99.99
2018-01-11T01:33:45.753Z,99.99
2018-01-11T01:34:45.488Z,99.99
2018-01-11T01:35:45.735Z,99.99
2018-01-11T01:36:45.727Z,99.99
2018-01-11T01:37:45.721Z,99.99
2018-01-11T01:38:45.713Z,99.99
2018-01-11T01:39:45.707Z,99.99
2018-01-11T01:40:45.450Z,99.99
2018-01-11T01:41:45.442Z,99.99
2018-01-11T01:42:45.692Z,99.99
2018-01-11T01:43:45.682Z,99.99
2018-01-11T01:44:45.677Z,99.99
2018-01-11T01:45:45.667Z,99.99
2018-01-11T01:46:45.458Z,99.99
2018-01-11T01:47:45.652Z,99.99
2018-01-11T01:48:45.650Z,99.99
2018-01-11T01:49:45.390Z,99.99
2018-01-11T01:50:45.634Z,99.99
2018-01-11T01:51:45.372Z,99.99
2018-01-11T01:52:45.622Z,99.99
2018-01-11T01:53:45.362Z,99.99
2018-01-11T01:54:45.350Z,99.99
2018-01-11T01:55:45.597Z,99.99
2018-01-11T01:56:45.588Z,99.99
2018-01-11T01:57:45.582Z,99.99
2018-01-11T01:58:45.323Z,99.99
2018-01-11T01:59:45.314Z,99.99
2018-01-11T02:00:45.310Z,99.99
2018-01-11T02:01:49.410Z,99.99
2018-01-11T02:02:45.544Z,99.99
2018-01-11T02:03:45.535Z,99.99
2018-01-11T02:04:45.534Z,99.99
2018-01-11T02:05:45.522Z,99.99
2018-01-11T02:06:45.518Z,99.99
2018-01-11T02:07:45.254Z,99.99
2018-01-11T02:08:45.500Z,99.99
2018-01-11T02:09:45.492Z,99.99
2018-01-11T02:10:45.483Z,99.99
2018-01-11T02:11:45.475Z,99.99
2018-01-11T02:12:45.467Z,99.99
2018-01-11T02:13:45.214Z,99.99
2018-01-11T02:14:45.199Z,99.99
2018-01-11T02:15:45.193Z,99.99
2018-01-11T02:16:45.435Z,99.99
2018-01-11T02:17:45.428Z,99.99
2018-01-11T02:18:45.426Z,99.99
2018-01-11T02:19:45.413Z,99.99
2018-01-11T02:20:45.154Z,99.99
2018-01-11T02:21:45.447Z,99.99
2018-01-11T02:22:45.412Z,99.99
2018-01-11T02:23:45.382Z,99.99
2018-01-11T02:24:45.379Z,99.99
2018-01-11T02:25:45.367Z,99.99
2018-01-11T02:26:45.359Z,99.99
2018-01-11T02:27:45.354Z,99.99
2018-01-11T02:28:45.348Z,99.99
2018-01-11T02:29:45.354Z,99.99
2018-01-11T02:30:45.327Z,99.99
2018-01-11T02:31:45.332Z,99.99
2018-01-11T02:32:45.066Z,99.99
2018-01-11T02:33:45.305Z,99.99
2018-01-11T02:34:45.300Z,99.99
2018-01-11T02:35:45.291Z,99.99
2018-01-11T02:36:45.302Z,99.99
2018-01-11T02:37:45.274Z,99.99
2018-01-11T02:38:45.270Z,99.99
2018-01-11T02:39:45.256Z,99.99
2018-01-11T02:40:45.250Z,99.99
2018-01-11T02:41:45.242Z,99.99
2018-01-11T02:42:45.232Z,99.99
2018-01-11T02:43:45.224Z,99.99
2018-01-11T02:44:45.234Z,99.99
2018-01-11T02:45:44.960Z,99.99
2018-01-11T02:46:45.202Z,99.99
2018-01-11T02:47:45.395Z,99.99
2018-01-11T02:48:45.183Z,99.99
2018-01-11T02:49:44.922Z,99.99
2018-01-11T02:50:45.176Z,99.99
2018-01-11T02:51:44.911Z,99.99
2018-01-11T02:52:45.156Z,99.99
2018-01-11T02:53:45.140Z,99.99
2018-01-11T02:54:45.136Z,99.99
2018-01-11T02:55:45.128Z,99.99
2018-01-11T02:56:45.115Z,99.99
2018-01-11T02:57:44.856Z,99.99
2018-01-11T02:58:45.102Z,99.99
2018-01-11T02:59:44.841Z,99.99
2018-01-11T03:00:45.086Z,99.99
2018-01-11T03:01:45.079Z,99.99
2018-01-11T03:02:48.422Z,99.99
2018-01-11T03:03:45.062Z,99.99
2018-01-11T03:04:45.048Z,99.99
2018-01-11T03:05:45.086Z,99.99
2018-01-11T03:06:45.034Z,99.99
2018-01-11T03:07:45.037Z,99.99
2018-01-11T03:08:44.762Z,99.99
2018-01-11T03:09:45.024Z,99.99
2018-01-11T03:10:44.749Z,99.99
2018-01-11T03:11:44.743Z,99.99
2018-01-11T03:12:44.984Z,99.99
2018-01-11T03:13:44.727Z,99.99
2018-01-11T03:14:44.714Z,99.99
2018-01-11T03:15:44.964Z,99.99
2018-01-11T03:16:44.704Z,99.99
2018-01-11T03:17:44.946Z,99.99
2018-01-11T03:18:44.932Z,99.99
2018-01-11T03:19:44.929Z,99.99
2018-01-11T03:20:44.664Z,99.99
2018-01-11T03:21:44.919Z,99.99
2018-01-11T03:22:44.982Z,99.99
2018-01-11T03:23:44.892Z,99.99
2018-01-11T03:24:44.888Z,99.99
2018-01-11T03:25:44.878Z,99.99
2018-01-11T03:26:44.616Z,99.99
2018-01-11T03:27:44.857Z,99.99
2018-01-11T03:28:44.598Z,99.99
2018-01-11T03:29:44.590Z,99.99
2018-01-11T03:30:44.583Z,99.99
2018-01-11T03:31:44.821Z,99.99
2018-01-11T03:32:44.820Z,99.99
2018-01-11T03:33:44.814Z,99.99
2018-01-11T03:34:44.812Z,99.99
2018-01-11T03:35:44.794Z,99.99
2018-01-11T03:36:44.780Z,99.99
2018-01-11T03:37:44.779Z,99.99
2018-01-11T03:38:44.762Z,99.99
2018-01-11T03:39:44.767Z,99.99
2018-01-11T03:40:44.754Z,99.99
2018-01-11T03:41:44.749Z,99.99
2018-01-11T03:42:44.737Z,99.99
2018-01-11T03:43:44.480Z,99.99
2018-01-11T03:44:44.720Z,99.99
2018-01-11T03:45:44.707Z,99.99
2018-01-11T03:46:44.707Z,99.99
2018-01-11T03:47:44.689Z,99.99
2018-01-11T03:48:44.695Z,99.99
2018-01-11T03:49:44.668Z,99.99
2018-01-11T03:50:44.450Z,99.99
2018-01-11T03:51:44.654Z,99.99
2018-01-11T03:52:44.644Z,99.99
2018-01-11T03:53:44.698Z,99.99
2018-01-11T03:54:44.375Z,99.99
2018-01-11T03:55:44.616Z,99.99
2018-01-11T03:56:44.359Z,99.99
2018-01-11T03:57:44.354Z,99.99
2018-01-11T03:58:44.589Z,99.99
2018-01-11T03:59:44.626Z,99.99
2018-01-11T04:00:44.581Z,99.99
2018-01-11T04:01:44.316Z,99.99
2018-01-11T04:02:44.557Z,99.99
2018-01-11T04:03:44.551Z,99.99
2018-01-11T04:04:44.545Z,99.99
2018-01-11T04:05:44.534Z,99.99
2018-01-11T04:06:44.524Z,99.99
2018-01-11T04:07:44.516Z,99.99
2018-01-11T04:08:44.518Z,99.99
2018-01-11T04:09:44.499Z,99.99
2018-01-11T04:10:44.498Z,99.99
2018-01-11T04:11:44.490Z,99.99
2018-01-11T04:12:44.223Z,99.99
2018-01-11T04:13:44.464Z,99.99
2018-01-11T04:14:44.457Z,99.99
2018-01-11T04:15:44.450Z,99.99
2018-01-11T04:16:44.187Z,99.99
2018-01-11T04:17:44.429Z,99.99
2018-01-11T04:18:44.689Z,99.99
2018-01-11T04:19:44.415Z,99.99
2018-01-11T04:20:44.407Z,99.99
2018-01-11T04:21:44.396Z,99.99
2018-01-11T04:22:44.395Z,99.99
2018-01-11T04:23:44.389Z,99.99
2018-01-11T04:24:44.369Z,99.99
2018-01-11T04:25:44.361Z,99.99
2018-01-11T04:26:44.349Z,99.99
2018-01-11T04:27:44.345Z,99.99
2018-01-11T04:28:44.337Z,99.99
2018-01-11T04:29:44.329Z,99.99
2018-01-11T04:30:44.332Z,99.99
2018-01-11T04:31:44.305Z,99.99
2018-01-11T04:32:44.300Z,99.99
2018-01-11T04:33:44.745Z,99.99
2018-01-11T04:34:44.286Z,99.99
2018-01-11T04:35:44.276Z,99.99
2018-01-11T04:36:44.269Z,99.99
2018-01-11T04:37:44.013Z,99.99
2018-01-11T04:38:44.247Z,99.99
2018-01-11T04:39:44.240Z,99.99
2018-01-11T04:40:44.235Z,99.99
2018-01-11T04:41:44.221Z,99.99
2018-01-11T04:42:44.228Z,99.99
2018-01-11T04:43:44.220Z,99.99
2018-01-11T04:44:44.197Z,99.99
2018-01-11T04:45:44.197Z,99.99
2018-01-11T04:46:44.194Z,99.99
2018-01-11T04:47:44.166Z,99.99
2018-01-11T04:48:44.713Z,99.99
2018-01-11T04:49:44.161Z,99.99
2018-01-11T04:50:44.141Z,99.99
2018-01-11T04:51:44.135Z,99.99
2018-01-11T04:52:44.126Z,99.99
2018-01-11T04:53:44.117Z,99.99
2018-01-11T04:54:44.111Z,99.99
2018-01-11T04:55:44.103Z,99.99
2018-01-11T04:56:44.096Z,99.99
2018-01-11T04:57:44.093Z,99.99
2018-01-11T04:58:44.083Z,99.99
2018-01-11T04:59:44.063Z,99.99
2018-01-11T05:00:44.056Z,99.99
2018-01-11T05:01:44.051Z,99.99
2018-01-11T05:02:44.036Z,99.99
2018-01-11T05:03:44.032Z,99.99
2018-01-11T05:04:43.770Z,99.99
2018-01-11T05:05:44.025Z,99.99
2018-01-11T05:06:44.007Z,99.99
2018-01-11T05:07:43.742Z,99.99
2018-01-11T05:08:43.997Z,99.99
2018-01-11T05:09:43.725Z,99.99
2018-01-11T05:10:43.716Z,99.99
2018-01-11T05:11:43.963Z,99.99
2018-01-11T05:12:44.008Z,99.99
2018-01-11T05:13:43.955Z,99.99
2018-01-11T05:14:43.687Z,99.99
2018-01-11T05:15:43.929Z,99.99
2018-01-11T05:16:43.915Z,99.99
2018-01-11T05:17:43.905Z,99.99
2018-01-11T05:18:43.896Z,99.99
2018-01-11T05:19:43.888Z,99.99
2018-01-11T05:20:43.882Z,99.99
2018-01-11T05:21:43.870Z,99.99
2018-01-11T05:22:43.860Z,99.99
2018-01-11T05:23:43.856Z,99.99
2018-01-11T05:24:43.840Z,99.99
2018-01-11T05:25:43.585Z,99.99
2018-01-11T05:26:43.822Z,99.99
2018-01-11T05:27:43.567Z,99.99
2018-01-11T05:28:43.817Z,99.99
2018-01-11T05:29:43.804Z,99.99
2018-01-11T05:30:43.784Z,99.99
2018-01-11T05:31:43.778Z,99.99
2018-01-11T05:32:43.768Z,99.99
2018-01-11T05:33:43.758Z,99.99
2018-01-11T05:34:43.507Z,99.99
2018-01-11T05:35:43.743Z,99.99
2018-01-11T05:36:43.732Z,99.99
2018-01-11T05:37:43.721Z,99.99
2018-01-11T05:38:43.717Z,99.99
2018-01-11T05:39:43.456Z,99.99
2018-01-11T05:40:43.704Z,99.99
2018-01-11T05:41:43.699Z,99.99
2018-01-11T05:42:43.678Z,99.99
2018-01-11T05:43:43.669Z,99.99
2018-01-11T05:44:43.658Z,99.99
2018-01-11T05:45:43.656Z,99.99
2018-01-11T05:46:43.652Z,99.99
2018-01-11T05:47:43.631Z,99.99
2018-01-11T05:48:43.624Z,99.99
2018-01-11T05:49:43.615Z,99.99
2018-01-11T05:50:43.351Z,99.99
2018-01-11T05:51:43.601Z,99.99
2018-01-11T05:52:43.596Z,99.99
2018-01-11T05:53:43.579Z,99.99
2018-01-11T05:54:43.574Z,99.99
2018-01-11T05:55:43.308Z,99.99
2018-01-11T05:56:43.304Z,99.99
2018-01-11T05:57:43.293Z,99.99
2018-01-11T05:58:43.287Z,99.99
2018-01-11T05:59:43.274Z,99.99
2018-01-11T06:00:43.281Z,99.99
2018-01-11T06:01:43.259Z,99.99
2018-01-11T06:02:43.249Z,99.99
2018-01-11T06:03:43.499Z,99.99
2018-01-11T06:04:46.636Z,99.99
2018-01-11T06:05:43.473Z,99.99
2018-01-11T06:06:43.472Z,99.99
2018-01-11T06:07:43.455Z,99.99
2018-01-11T06:08:43.446Z,99.99
2018-01-11T06:09:43.443Z,99.99
2018-01-11T06:10:43.437Z,99.99
2018-01-11T06:11:43.421Z,99.99
2018-01-11T06:12:43.418Z,99.99
2018-01-11T06:13:43.418Z,99.99
2018-01-11T06:14:43.414Z,99.99
2018-01-11T06:15:43.386Z,99.99
2018-01-11T06:16:43.422Z,99.99
2018-01-11T06:17:43.368Z,99.99
2018-01-11T06:18:43.365Z,99.99
2018-01-11T06:19:43.357Z,99.99
2018-01-11T06:20:43.104Z,99.99
2018-01-11T06:21:43.080Z,99.99
2018-01-11T06:22:43.326Z,99.99
2018-01-11T06:23:43.317Z,99.99
2018-01-11T06:24:43.058Z,99.99
2018-01-11T06:25:43.302Z,99.99
2018-01-11T06:26:43.044Z,99.99
2018-01-11T06:27:43.281Z,99.99
2018-01-11T06:28:43.276Z,99.99
2018-01-11T06:29:43.268Z,99.99
2018-01-11T06:30:43.000Z,99.99
2018-01-11T06:31:43.246Z,99.99
2018-01-11T06:32:43.238Z,99.99
2018-01-11T06:33:43.255Z,99.99
2018-01-11T06:34:43.224Z,99.99
2018-01-11T06:35:43.210Z,99.99
2018-01-11T06:36:43.200Z,99.99
2018-01-11T06:37:43.200Z,99.99
2018-01-11T06:38:43.182Z,99.99
2018-01-11T06:39:43.172Z,99.99
2018-01-11T06:40:43.167Z,99.99
2018-01-11T06:41:43.159Z,99.99
2018-01-11T06:42:43.159Z,99.99
2018-01-11T06:43:42.887Z,99.99
2018-01-11T06:44:43.132Z,99.99
2018-01-11T06:45:43.131Z,99.99
2018-01-11T06:46:43.117Z,99.99
2018-01-11T06:47:43.114Z,99.99
2018-01-11T06:48:42.854Z,99.99
2018-01-11T06:49:43.085Z,99.99
2018-01-11T06:50:42.824Z,99.99
2018-01-11T06:51:43.067Z,99.99
2018-01-11T06:52:43.061Z,99.99
2018-01-11T06:53:43.050Z,99.99
2018-01-11T06:54:42.796Z,99.99
2018-01-11T06:55:43.035Z,99.99
2018-01-11T06:56:43.029Z,99.99
2018-01-11T06:57:43.024Z,99.99
2018-01-11T06:58:43.007Z,99.99
2018-01-11T06:59:42.999Z,99.99
2018-01-11T07:00:43.590Z,99.99
2018-01-11T07:01:43.005Z,99.99
2018-01-11T07:02:42.987Z,99.99
2018-01-11T07:03:42.712Z,99.99
2018-01-11T07:04:42.962Z,99.99
2018-01-11T07:05:43.201Z,99.99
2018-01-11T07:06:42.941Z,99.99
2018-01-11T07:07:42.928Z,99.99
2018-01-11T07:08:42.920Z,99.99
2018-01-11T07:09:42.911Z,99.99
2018-01-11T07:10:42.910Z,99.99
2018-01-11T07:11:42.942Z,99.99
2018-01-11T07:12:42.886Z,99.99
2018-01-11T07:13:42.889Z,99.99
2018-01-11T07:14:42.620Z,99.99
2018-01-11T07:15:42.873Z,99.99
2018-01-11T07:16:42.850Z,99.99
2018-01-11T07:17:42.842Z,99.99
2018-01-11T07:18:42.580Z,99.99
2018-01-11T07:19:42.574Z,99.99
2018-01-11T07:20:42.814Z,99.99
2018-01-11T07:21:42.821Z,99.99
2018-01-11T07:22:42.557Z,99.99
2018-01-11T07:23:42.790Z,99.99
2018-01-11T07:24:42.779Z,99.99
2018-01-11T07:25:42.771Z,99.99
2018-01-11T07:26:42.768Z,99.99
2018-01-11T07:27:42.503Z,99.99
2018-01-11T07:28:42.510Z,99.99
2018-01-11T07:29:42.740Z,99.99
2018-01-11T07:30:42.477Z,99.99
2018-01-11T07:31:42.731Z,99.99
2018-01-11T07:32:42.714Z,99.99
2018-01-11T07:33:42.460Z,99.99
2018-01-11T07:34:42.702Z,99.99
2018-01-11T07:35:42.688Z,99.99
2018-01-11T07:36:42.685Z,99.99
2018-01-11T07:37:42.670Z,99.99
2018-01-11T07:38:42.668Z,99.99
2018-01-11T07:39:42.652Z,99.99
2018-01-11T07:40:42.654Z,99.99
2018-01-11T07:41:42.383Z,99.99
2018-01-11T07:42:42.374Z,99.99
2018-01-11T07:43:42.619Z,99.99
2018-01-11T07:44:42.611Z,99.99
2018-01-11T07:45:42.599Z,99.99
2018-01-11T07:46:42.599Z,99.99
2018-01-11T07:47:42.592Z,99.99
2018-01-11T07:48:42.576Z,99.99
2018-01-11T07:49:42.568Z,99.99
2018-01-11T07:50:42.570Z,99.99
2018-01-11T07:51:42.621Z,99.99
2018-01-11T07:52:42.542Z,99.99
2018-01-11T07:53:42.543Z,99.99
2018-01-11T07:54:42.537Z,99.99
2018-01-11T07:55:42.516Z,99.99
2018-01-11T07:56:42.255Z,99.99
2018-01-11T07:57:42.500Z,99.99
2018-01-11T07:58:42.245Z,99.99
2018-01-11T07:59:42.486Z,99.99
2018-01-11T08:00:42.474Z,99.99
2018-01-11T08:01:42.476Z,99.99
2018-01-11T08:02:42.468Z,99.99
2018-01-11T08:03:42.450Z,99.99
2018-01-11T08:04:42.452Z,99.99
2018-01-11T08:05:42.441Z,99.99
2018-01-11T08:06:42.429Z,99.99
2018-01-11T08:07:42.416Z,99.99
2018-01-11T08:08:42.424Z,99.99
2018-01-11T08:09:42.404Z,99.99
2018-01-11T08:10:42.399Z,99.99
2018-01-11T08:11:42.384Z,99.99
2018-01-11T08:12:42.396Z,99.99
2018-01-11T08:13:42.371Z,99.99
2018-01-11T08:14:42.400Z,99.99
2018-01-11T08:15:42.354Z,99.99
2018-01-11T08:16:42.348Z,99.99
2018-01-11T08:17:42.340Z,99.99
2018-01-11T08:18:42.323Z,99.99
2018-01-11T08:19:42.319Z,99.99
2018-01-11T08:20:42.310Z,99.99
2018-01-11T08:21:43.849Z,99.99
2018-01-11T08:22:42.294Z,99.99
2018-01-11T08:23:42.041Z,99.99
2018-01-11T08:24:42.276Z,99.99
2018-01-11T08:25:42.274Z,99.99
2018-01-11T08:26:42.260Z,99.99
2018-01-11T08:27:42.252Z,99.99
2018-01-11T08:28:42.251Z,99.99
2018-01-11T08:29:41.983Z,99.99
2018-01-11T08:30:42.225Z,99.99
2018-01-11T08:31:42.219Z,99.99
2018-01-11T08:32:42.212Z,99.99
2018-01-11T08:33:42.215Z,99.99
2018-01-11T08:34:41.939Z,99.99
2018-01-11T08:35:42.181Z,99.99
2018-01-11T08:36:44.087Z,99.99
2018-01-11T08:37:42.175Z,99.99
2018-01-11T08:38:42.163Z,99.99
2018-01-11T08:39:42.153Z,99.99
2018-01-11T08:40:42.143Z,99.99
2018-01-11T08:41:42.138Z,99.99
2018-01-11T08:42:42.126Z,99.99
2018-01-11T08:43:42.119Z,99.99
2018-01-11T08:44:42.113Z,99.99
2018-01-11T08:45:42.099Z,99.99
2018-01-11T08:46:42.092Z,99.99
2018-01-11T08:47:42.143Z,99.99
2018-01-11T08:48:42.078Z,99.99
2018-01-11T08:49:42.074Z,99.99
2018-01-11T08:50:42.069Z,99.99
2018-01-11T08:51:42.052Z,99.99
2018-01-11T08:52:42.042Z,99.99
2018-01-11T08:53:41.781Z,99.99
2018-01-11T08:54:42.023Z,99.99
2018-01-11T08:55:42.015Z,99.99
2018-01-11T08:56:42.010Z,99.99
2018-01-11T08:57:42.003Z,99.99
2018-01-11T08:58:41.990Z,99.99
2018-01-11T08:59:41.989Z,99.99
2018-01-11T09:00:41.726Z,99.99
2018-01-11T09:01:41.970Z,99.99
2018-01-11T09:02:41.726Z,99.99
2018-01-11T09:03:41.956Z,99.99
2018-01-11T09:04:41.943Z,99.99
2018-01-11T09:05:41.686Z,99.99
2018-01-11T09:06:41.930Z,99.99
2018-01-11T09:07:41.679Z,99.99
2018-01-11T09:08:41.920Z,99.99
2018-01-11T09:09:41.910Z,99.99
2018-01-11T09:10:41.900Z,99.99
2018-01-11T09:11:41.893Z,99.99
2018-01-11T09:12:41.882Z,99.99
2018-01-11T09:13:41.873Z,99.99
2018-01-11T09:14:41.871Z,99.99
2018-01-11T09:15:41.610Z,99.99
2018-01-11T09:16:41.860Z,99.99
2018-01-11T09:17:41.847Z,99.99
2018-01-11T09:18:41.887Z,99.99
2018-01-11T09:19:41.939Z,99.99
2018-01-11T09:20:41.824Z,99.99
2018-01-11T09:21:41.817Z,99.99
2018-01-11T09:22:41.813Z,99.99
2018-01-11T09:23:41.801Z,99.99
2018-01-11T09:24:41.795Z,99.99
2018-01-11T09:25:41.789Z,99.99
2018-01-11T09:26:41.793Z,99.99
2018-01-11T09:27:41.816Z,99.99
2018-01-11T09:28:41.766Z,99.99
2018-01-11T09:29:41.524Z,99.99
2018-01-11T09:30:41.754Z,99.99
2018-01-11T09:31:41.746Z,99.99
2018-01-11T09:32:41.741Z,99.99
2018-01-11T09:33:41.484Z,99.99
2018-01-11T09:34:41.735Z,99.99
2018-01-11T09:35:41.723Z,99.99
2018-01-11T09:36:41.725Z,99.99
2018-01-11T09:37:41.725Z,99.99
2018-01-11T09:38:41.697Z,99.99
2018-01-11T09:39:41.697Z,99.99
2018-01-11T09:40:41.685Z,99.99
2018-01-11T09:41:41.426Z,99.99
2018-01-11T09:42:41.678Z,99.99
2018-01-11T09:43:41.670Z,99.99
2018-01-11T09:44:41.407Z,99.99
2018-01-11T09:45:41.398Z,99.99
2018-01-11T09:46:41.646Z,99.99
2018-01-11T09:47:41.640Z,99.99
2018-01-11T09:48:41.634Z,99.99
2018-01-11T09:49:41.631Z,99.99
2018-01-11T09:50:41.619Z,99.99
2018-01-11T09:51:41.360Z,99.99
2018-01-11T09:52:41.664Z,99.99
2018-01-11T09:53:41.615Z,99.99
2018-01-11T09:54:41.594Z,99.99
2018-01-11T09:55:41.612Z,99.99
2018-01-11T09:56:41.588Z,99.99
2018-01-11T09:57:41.580Z,99.99
2018-01-11T09:58:41.321Z,99.99
2018-01-11T09:59:41.562Z,99.99
2018-01-11T10:00:41.557Z,99.99
2018-01-11T10:01:41.555Z,99.99
2018-01-11T10:02:41.553Z,99.99
2018-01-11T10:03:41.552Z,99.99
2018-01-11T10:04:41.541Z,99.99
2018-01-11T10:05:41.276Z,99.99
2018-01-11T10:06:41.520Z,99.99
2018-01-11T10:07:44.222Z,99.99
2018-01-11T10:08:41.539Z,99.99
2018-01-11T10:09:41.252Z,99.99
2018-01-11T10:10:41.505Z,99.99
2018-01-11T10:11:41.488Z,99.99
2018-01-11T10:12:42.042Z,99.99
2018-01-11T10:13:41.474Z,99.99
2018-01-11T10:14:41.217Z,99.99
2018-01-11T10:15:41.469Z,99.99
2018-01-11T10:16:41.460Z,99.99
2018-01-11T10:17:41.450Z,99.99
2018-01-11T10:18:41.447Z,99.99
2018-01-11T10:19:41.463Z,99.99
2018-01-11T10:20:41.186Z,99.99
2018-01-11T10:21:41.427Z,99.99
2018-01-11T10:22:41.477Z,99.99
2018-01-11T10:52:59.935Z,98.97
2018-01-11T10:53:59.119Z,99.99
2018-01-11T10:54:59.107Z,99.07
2018-01-11T10:55:59.124Z,99.73
2018-01-11T10:56:58.838Z,98.79
2018-01-11T10:57:59.075Z,99.35
2018-01-11T10:58:59.059Z,98.97
2018-01-11T10:59:59.052Z,98.88
2018-01-11T11:00:59.046Z,98.31
2018-01-11T11:01:59.036Z,98.12
2018-01-11T11:02:59.022Z,98.4
2018-01-11T11:03:59.017Z,98.21
2018-01-11T11:04:58.779Z,97.64
2018-01-11T11:05:58.761Z,96.98
2018-01-11T11:06:58.992Z,96.41
2018-01-11T11:07:58.991Z,96.55
2018-01-11T11:08:58.982Z,96.22
2018-01-11T11:09:58.985Z,96.22
2018-01-11T11:10:58.965Z,95.7
2018-01-11T11:11:58.719Z,95.89
2018-01-11T11:12:58.964Z,96.08
2018-01-11T11:13:58.994Z,95.98
2018-01-11T11:14:58.690Z,96.17
2018-01-11T11:15:58.685Z,96.26
2018-01-11T11:16:58.937Z,95.03
2018-01-11T11:17:58.922Z,94.27
2018-01-11T11:18:58.918Z,94.56
2018-01-11T11:19:58.917Z,94.08
2018-01-11T11:20:58.907Z,94.46
2018-01-11T11:21:58.903Z,94.18
2018-01-11T11:22:58.902Z,94.37
2018-01-11T11:23:58.892Z,94.46
2018-01-11T11:24:58.885Z,93.79
2018-01-11T11:25:58.892Z,93.7
2018-01-11T11:26:58.895Z,93.41
2018-01-11T11:27:58.884Z,93.6
2018-01-11T11:28:58.871Z,93.41
2018-01-11T11:29:58.889Z,93.23
2018-01-11T11:30:58.858Z,92.56
2018-01-11T11:31:58.867Z,92.46
2018-01-11T11:32:58.870Z,92.18
2018-01-11T11:33:58.858Z,91.85
2018-01-11T11:34:58.864Z,92.27
2018-01-11T11:35:58.856Z,91.99
2018-01-11T11:36:58.851Z,92.08
2018-01-11T11:37:58.848Z,91.47
2018-01-11T11:38:58.826Z,91.56
2018-01-11T11:39:58.849Z,91.56
2018-01-11T11:40:58.802Z,91.75
2018-01-11T11:41:58.826Z,91.56
2018-01-11T11:42:58.825Z,91.56
2018-01-11T11:43:58.836Z,91.37
2018-01-11T11:44:58.797Z,91.56
2018-01-11T11:45:58.815Z,91.08
2018-01-11T11:46:58.526Z,90.89
2018-01-11T11:47:58.846Z,90.14
2018-01-11T11:48:58.516Z,90.04
2018-01-11T11:49:58.784Z,90.14
2018-01-11T11:50:58.753Z,89.94
2018-01-11T11:51:58.755Z,90.04
2018-01-11T11:52:58.791Z,90.14
2018-01-11T11:53:58.495Z,90.14
2018-01-11T11:54:58.785Z,89.37
2018-01-11T11:55:58.801Z,89.56
2018-01-11T11:56:58.793Z,89.47
2018-01-11T11:57:58.786Z,89.66
2018-01-11T11:58:58.744Z,89.18
2018-01-11T11:59:58.742Z,88.23
2018-01-11T12:00:58.457Z,88.23
2018-01-11T12:01:58.761Z,88.23
2018-01-11T12:02:58.459Z,88.28
2018-01-11T12:03:58.710Z,88.52
2018-01-11T12:04:58.451Z,88.28
2018-01-11T12:05:58.710Z,88.23
2018-01-11T12:06:58.437Z,88.37
2018-01-11T12:07:58.698Z,87.8
2018-01-11T12:08:58.683Z,88.09
2018-01-11T12:09:58.704Z,87.99
2018-01-11T12:10:58.688Z,87.9
2018-01-11T12:11:58.676Z,87.32
2018-01-11T12:12:58.669Z,87.13
2018-01-11T12:13:58.679Z,86.66
2018-01-11T12:14:58.667Z,86.38
2018-01-11T12:15:58.659Z,86.57
2018-01-11T12:16:58.641Z,86.47
2018-01-11T12:17:58.634Z,87.32
2018-01-11T12:18:58.635Z,87.32
2018-01-11T12:19:58.651Z,87.71
2018-01-11T12:20:58.640Z,87.8
2018-01-11T12:21:58.630Z,87.8
2018-01-11T12:22:58.361Z,87.61
2018-01-11T12:23:58.621Z,87.52
2018-01-11T12:24:58.353Z,87.9
2018-01-11T12:25:58.615Z,87.9
2018-01-11T12:26:58.347Z,87.23
2018-01-11T12:27:58.341Z,87.23
2018-01-11T12:28:58.595Z,87.42
2018-01-11T12:29:58.334Z,87.13
2018-01-11T12:30:58.331Z,86.09
2018-01-11T12:31:58.325Z,86.38
2018-01-11T12:32:58.572Z,86.28
2018-01-11T12:33:58.591Z,85.9
2018-01-11T12:34:58.321Z,85.52
2018-01-11T12:35:58.316Z,86.18
2018-01-11T12:36:58.561Z,85.71
2018-01-11T12:37:58.563Z,85.9
2018-01-11T12:38:58.572Z,85.99
2018-01-11T12:39:58.546Z,85.9
2018-01-11T12:40:58.286Z,86.28
2018-01-11T12:41:58.540Z,85.61
2018-01-11T12:42:58.531Z,85.42
2018-01-11T12:43:58.282Z,86.18
2018-01-11T12:44:58.527Z,85.8
2018-01-11T12:45:58.520Z,85.66
2018-01-11T12:46:58.280Z,86.04
2018-01-11T12:47:58.516Z,85.66
2018-01-11T12:48:58.512Z,85.56
2018-01-11T12:49:58.504Z,84.61
2018-01-11T12:50:58.254Z,84.8
2018-01-11T12:51:58.243Z,85.37
2018-01-11T12:52:58.504Z,85.18
2018-01-11T12:53:58.513Z,85.08
2018-01-11T12:54:58.485Z,85.08
2018-01-11T12:55:58.484Z,85.08
2018-01-11T12:56:58.473Z,85.37
2018-01-11T12:57:58.471Z,85.18
2018-01-11T12:58:58.473Z,84.89
2018-01-11T12:59:58.465Z,85.37
2018-01-11T13:00:58.206Z,84.52
2018-01-11T13:01:58.453Z,84.13
2018-01-11T13:02:58.456Z,84.52
2018-01-11T13:03:58.452Z,84.33
2018-01-11T13:04:58.446Z,84.33
2018-01-11T13:05:58.437Z,84.33
2018-01-11T13:06:58.456Z,84.8
2018-01-11T13:07:58.446Z,84.99
2018-01-11T13:08:58.428Z,85.18
2018-01-11T13:09:58.428Z,85.18
2018-01-11T13:10:58.204Z,84.99
2018-01-11T13:11:58.419Z,84.8
2018-01-11T13:12:58.413Z,85.18
2018-01-11T13:13:58.172Z,85.37
2018-01-11T13:14:58.407Z,84.8
2018-01-11T13:15:58.403Z,84.7
2018-01-11T13:16:58.399Z,84.52
2018-01-11T13:17:58.395Z,84.42
2018-01-11T13:18:58.390Z,84.61
2018-01-11T13:19:58.392Z,85.18
2018-01-11T13:20:58.380Z,84.8
2018-01-11T13:21:58.392Z,84.99
2018-01-11T13:22:58.121Z,84.89